createdAt,value
2022-08-29T00:01:13.392Z,18.30
2022-08-29T00:03:43.116Z,18.30
2022-08-29T00:06:10.948Z,18.20
2022-08-29T00:08:39.538Z,18.10
2022-08-29T00:11:08.179Z,18.20
2022-08-29T00:13:36.198Z,18.10
2022-08-29T00:16:03.549Z,18.10
2022-08-29T00:18:32.730Z,18.10
2022-08-29T00:20:59.940Z,18.10
2022-08-29T00:23:27.063Z,18.10
2022-08-29T00:25:54.849Z,18.00
2022-08-29T00:28:22.149Z,18.10
2022-08-29T00:30:51.079Z,18.10
2022-08-29T00:33:18.475Z,18.10
2022-08-29T00:35:46.363Z,18.10
2022-08-29T00:38:18.196Z,18.10
2022-08-29T00:40:54.583Z,18.10
2022-08-29T00:43:26.440Z,18.10
2022-08-29T00:45:59.296Z,18.10
2022-08-29T00:48:26.993Z,18.10
2022-08-29T00:50:57.421Z,18.20
2022-08-29T00:53:32.034Z,18.10
2022-08-29T00:56:00.423Z,18.10
2022-08-29T00:58:35.556Z,18.10
2022-08-29T01:01:03.568Z,18.10
2022-08-29T01:03:33.843Z,18.10
2022-08-29T01:06:02.300Z,18.20
2022-08-29T01:08:30.388Z,18.10
2022-08-29T01:11:16.351Z,18.10
2022-08-29T01:13:47.030Z,18.00
2022-08-29T01:16:14.920Z,18.00
2022-08-29T01:18:45.409Z,18.00
2022-08-29T01:21:29.982Z,18.00
2022-08-29T01:24:18.297Z,18.00
2022-08-29T01:26:47.337Z,18.00
2022-08-29T01:29:15.684Z,17.90
2022-08-29T01:31:56.625Z,18.00
2022-08-29T01:34:28.335Z,17.90
2022-08-29T01:37:01.912Z,17.90
2022-08-29T01:39:35.773Z,17.90
2022-08-29T01:42:13.589Z,17.90
2022-08-29T01:44:41.610Z,17.90
2022-08-29T01:47:09.517Z,17.90
2022-08-29T01:49:38.821Z,17.90
2022-08-29T01:52:09.251Z,17.90
2022-08-29T01:54:36.522Z,17.90
2022-08-29T01:57:03.998Z,17.90
2022-08-29T01:59:31.869Z,17.90
2022-08-29T02:02:19.993Z,17.90
2022-08-29T02:04:48.462Z,17.90
2022-08-29T02:07:17.685Z,17.90
2022-08-29T02:09:46.065Z,17.90
2022-08-29T02:12:15.710Z,17.90
2022-08-29T02:14:42.917Z,17.80
2022-08-29T02:17:10.344Z,17.80
2022-08-29T02:19:38.933Z,17.80
2022-08-29T02:22:07.722Z,17.70
2022-08-29T02:24:34.825Z,17.70
2022-08-29T02:27:02.068Z,17.70
2022-08-29T02:29:37.203Z,17.60
2022-08-29T02:32:08.365Z,17.60
2022-08-29T02:34:35.893Z,17.60
2022-08-29T02:37:04.833Z,17.60
2022-08-29T02:39:34.257Z,17.50
2022-08-29T02:42:02.037Z,17.60
2022-08-29T02:44:29.569Z,17.60
2022-08-29T02:46:57.221Z,17.50
2022-08-29T02:49:24.186Z,17.60
2022-08-29T02:51:51.133Z,17.50
2022-08-29T02:54:18.366Z,17.50
2022-08-29T02:56:45.288Z,17.50
2022-08-29T02:59:14.296Z,17.40
2022-08-29T03:01:41.505Z,17.40
2022-08-29T03:04:08.672Z,17.40
2022-08-29T03:06:35.612Z,17.30
2022-08-29T03:09:03.626Z,17.30
2022-08-29T03:11:31.106Z,17.30
2022-08-29T03:13:58.223Z,17.20
2022-08-29T03:16:26.784Z,17.20
2022-08-29T03:18:54.889Z,17.10
2022-08-29T03:21:25.804Z,17.00
2022-08-29T03:23:55.888Z,17.00
2022-08-29T03:26:23.884Z,16.90
2022-08-29T03:28:51.186Z,16.90
2022-08-29T03:31:19.260Z,16.80
2022-08-29T03:33:46.540Z,16.80
2022-08-29T03:36:14.178Z,16.80
2022-08-29T03:38:43.677Z,16.70
2022-08-29T03:41:12.069Z,16.70
2022-08-29T03:43:39.081Z,16.70
2022-08-29T03:46:06.942Z,16.60
2022-08-29T03:48:34.439Z,16.70
2022-08-29T03:51:01.622Z,16.60
2022-08-29T03:53:30.059Z,16.60
2022-08-29T03:55:58.394Z,16.60
2022-08-29T03:58:26.026Z,16.60
2022-08-29T04:00:53.308Z,16.60
2022-08-29T04:03:24.957Z,16.60
2022-08-29T04:05:59.356Z,16.50
2022-08-29T04:08:26.727Z,16.40
2022-08-29T04:10:54.073Z,16.30
2022-08-29T04:13:22.381Z,16.20
2022-08-29T04:15:50.484Z,16.20
2022-08-29T04:18:21.388Z,16.20
2022-08-29T04:20:49.648Z,16.20
2022-08-29T04:23:16.855Z,16.20
2022-08-29T04:25:44.590Z,16.10
2022-08-29T04:28:14.953Z,16.10
2022-08-29T04:30:51.846Z,16.00
2022-08-29T04:33:23.485Z,16.00
2022-08-29T04:35:52.024Z,16.00
2022-08-29T04:38:19.822Z,16.00
2022-08-29T04:40:47.837Z,16.00
2022-08-29T04:43:15.351Z,16.00
2022-08-29T04:45:42.871Z,16.10
2022-08-29T04:48:11.446Z,16.10
2022-08-29T04:50:39.075Z,16.10
2022-08-29T04:53:06.506Z,16.10
2022-08-29T04:55:33.856Z,16.10
2022-08-29T04:58:01.624Z,16.20
2022-08-29T05:00:31.526Z,16.10
2022-08-29T05:03:00.682Z,16.10
2022-08-29T05:05:28.483Z,16.10
2022-08-29T05:07:56.093Z,16.00
2022-08-29T05:10:24.167Z,16.00
2022-08-29T05:12:52.300Z,16.00
2022-08-29T05:15:20.219Z,16.00
2022-08-29T05:17:47.994Z,16.00
2022-08-29T05:20:18.996Z,16.00
2022-08-29T05:22:46.555Z,16.10
2022-08-29T05:25:18.365Z,16.10
2022-08-29T05:27:46.174Z,16.20
2022-08-29T05:30:13.694Z,16.20
2022-08-29T05:32:41.525Z,16.30
2022-08-29T05:35:10.027Z,16.30
2022-08-29T05:37:39.043Z,16.40
2022-08-29T05:40:08.287Z,16.50
2022-08-29T05:42:36.158Z,16.70
2022-08-29T05:45:08.303Z,16.80
2022-08-29T05:47:36.480Z,17.10
2022-08-29T05:50:04.496Z,17.40
2022-08-29T05:52:32.642Z,17.70
2022-08-29T05:55:02.361Z,18.00
2022-08-29T05:57:32.844Z,18.40
2022-08-29T06:00:01.278Z,18.70
2022-08-29T06:02:29.035Z,19.10
2022-08-29T06:04:57.724Z,19.60
2022-08-29T06:07:25.686Z,20.00
2022-08-29T06:09:53.577Z,20.30
2022-08-29T06:12:21.314Z,20.60
2022-08-29T06:14:52.401Z,21.00
2022-08-29T06:17:21.202Z,21.20
2022-08-29T06:19:51.563Z,21.60
2022-08-29T06:22:20.308Z,21.90
2022-08-29T06:24:48.433Z,22.10
2022-08-29T06:27:16.835Z,22.40
2022-08-29T06:29:44.607Z,22.80
2022-08-29T06:32:14.266Z,23.10
2022-08-29T06:34:42.139Z,23.30
2022-08-29T06:37:10.478Z,23.70
2022-08-29T06:39:38.093Z,24.00
2022-08-29T06:42:05.720Z,24.30
2022-08-29T06:44:34.233Z,24.70
2022-08-29T06:47:02.735Z,25.30
2022-08-29T06:49:30.296Z,25.30
2022-08-29T06:51:59.168Z,25.80
2022-08-29T06:54:29.078Z,26.20
2022-08-29T06:56:59.413Z,27.00
2022-08-29T06:59:28.316Z,27.20
2022-08-29T07:01:55.856Z,27.70
2022-08-29T07:04:26.654Z,28.10
2022-08-29T07:06:55.406Z,28.00
2022-08-29T07:09:23.141Z,27.70
2022-08-29T07:11:50.647Z,28.20
2022-08-29T07:14:18.668Z,28.70
2022-08-29T07:16:46.224Z,29.00
2022-08-29T07:19:14.546Z,29.40
2022-08-29T07:21:43.348Z,29.60
2022-08-29T07:24:11.291Z,29.80
2022-08-29T07:26:43.755Z,30.00
2022-08-29T07:29:19.419Z,30.00
2022-08-29T07:31:47.950Z,30.30
2022-08-29T07:34:15.927Z,30.80
2022-08-29T07:36:43.942Z,31.20
2022-08-29T07:39:17.404Z,32.00
2022-08-29T07:41:49.738Z,32.50
2022-08-29T07:44:19.472Z,31.40
2022-08-29T07:46:47.902Z,30.80
2022-08-29T07:49:16.364Z,31.10
2022-08-29T07:51:47.149Z,31.60
2022-08-29T07:54:17.186Z,32.30
2022-08-29T07:56:47.554Z,32.50
2022-08-29T07:59:16.301Z,32.50
2022-08-29T08:01:45.168Z,32.60
2022-08-29T08:04:24.907Z,32.80
2022-08-29T08:06:52.972Z,34.20
2022-08-29T08:09:20.958Z,32.40
2022-08-29T08:11:49.396Z,32.90
2022-08-29T08:14:17.705Z,33.00
2022-08-29T08:16:46.080Z,32.40
2022-08-29T08:19:15.755Z,32.30
2022-08-29T08:21:49.679Z,32.70
2022-08-29T08:24:20.398Z,32.90
2022-08-29T08:26:49.691Z,32.90
2022-08-29T08:29:18.303Z,32.80
2022-08-29T08:31:49.029Z,32.40
2022-08-29T08:34:19.132Z,32.10
2022-08-29T08:36:47.483Z,32.90
2022-08-29T08:39:15.821Z,32.60
2022-08-29T08:41:53.210Z,32.60
2022-08-29T08:44:25.107Z,33.50
2022-08-29T08:46:58.637Z,33.90
2022-08-29T08:50:03.687Z,34.50
2022-08-29T08:53:01.448Z,34.40
2022-08-29T08:55:43.404Z,34.60
2022-08-29T08:58:33.237Z,35.30
2022-08-29T09:01:19.109Z,36.40
2022-08-29T09:03:58.491Z,37.30
2022-08-29T09:06:40.706Z,35.10
2022-08-29T09:09:24.992Z,34.10
2022-08-29T09:12:05.220Z,33.00
2022-08-29T09:14:34.150Z,34.00
2022-08-29T09:17:04.259Z,35.30
2022-08-29T09:19:32.474Z,36.50
2022-08-29T09:22:10.665Z,37.20
2022-08-29T09:24:50.409Z,37.30
2022-08-29T09:27:29.170Z,36.80
2022-08-29T09:30:21.395Z,37.20
2022-08-29T09:33:02.398Z,37.30
2022-08-29T09:35:38.129Z,36.90
2022-08-29T09:38:09.738Z,37.30
2022-08-29T09:40:52.201Z,38.10
2022-08-29T09:43:44.719Z,38.60
2022-08-29T09:46:12.913Z,39.00
2022-08-29T09:48:52.549Z,38.70
2022-08-29T09:51:30.869Z,38.90
2022-08-29T09:54:26.536Z,38.70
2022-08-29T09:57:19.394Z,37.20
2022-08-29T09:59:51.178Z,34.10
2022-08-29T10:02:27.058Z,30.60
2022-08-29T10:05:02.094Z,28.40
2022-08-29T10:07:36.342Z,26.70
2022-08-29T10:10:18.325Z,25.70
2022-08-29T10:13:02.206Z,25.20
2022-08-29T10:15:54.754Z,25.00
2022-08-29T10:18:43.225Z,24.30
2022-08-29T10:21:13.348Z,23.90
2022-08-29T10:24:18.915Z,23.60
2022-08-29T10:26:53.707Z,23.40
2022-08-29T10:29:39.771Z,23.30
2022-08-29T10:32:38.574Z,23.20
2022-08-29T10:35:30.423Z,23.20
2022-08-29T10:38:18.744Z,23.20
2022-08-29T10:40:57.280Z,23.00
2022-08-29T10:43:45.242Z,22.90
2022-08-29T10:46:33.587Z,22.70
2022-08-29T10:49:49.563Z,22.60
2022-08-29T10:52:45.443Z,22.60
2022-08-29T10:55:48.815Z,22.70
2022-08-29T10:58:35.952Z,22.80
2022-08-29T11:04:17.910Z,22.90
2022-08-29T11:07:08.102Z,22.90
2022-08-29T11:09:38.693Z,22.90
2022-08-29T11:12:21.671Z,22.90
2022-08-29T11:15:22.591Z,23.00
2022-08-29T11:18:33.468Z,23.00
2022-08-29T11:21:31.898Z,23.00
2022-08-29T11:24:03.934Z,22.90
2022-08-29T11:26:41.565Z,22.90
2022-08-29T11:29:34.189Z,22.80
2022-08-29T11:32:15.785Z,22.60
2022-08-29T11:35:11.061Z,22.70
2022-08-29T11:37:53.835Z,22.80
2022-08-29T11:43:54.727Z,23.00
2022-08-29T11:46:56.473Z,23.10
2022-08-29T11:49:49.693Z,23.40
2022-08-29T11:52:27.915Z,23.60
2022-08-29T11:55:24.110Z,23.60
2022-08-29T11:57:59.339Z,23.40
2022-08-29T12:00:39.344Z,23.50
2022-08-29T12:03:33.525Z,23.60
2022-08-29T12:06:43.029Z,23.60
2022-08-29T12:09:14.418Z,23.90
2022-08-29T12:12:12.757Z,24.20
2022-08-29T12:14:42.913Z,24.20
2022-08-29T12:18:00.323Z,24.00
2022-08-29T12:20:31.862Z,23.80
2022-08-29T12:23:11.107Z,23.60
2022-08-29T12:26:22.164Z,23.50
2022-08-29T12:29:10.621Z,23.40
2022-08-29T12:32:23.837Z,23.40
2022-08-29T12:35:10.567Z,23.30
2022-08-29T12:38:11.960Z,23.20
2022-08-29T12:40:42.392Z,23.10
2022-08-29T12:43:36.537Z,23.00
2022-08-29T12:46:21.484Z,23.10
2022-08-29T12:48:57.674Z,23.30
2022-08-29T12:51:35.400Z,23.20
2022-08-29T12:54:04.042Z,23.00
2022-08-29T12:56:32.540Z,23.00
2022-08-29T12:59:04.080Z,23.10
2022-08-29T13:01:40.603Z,23.20
2022-08-29T13:04:11.533Z,23.50
2022-08-29T13:06:51.613Z,23.70
2022-08-29T13:09:53.112Z,23.90
2022-08-29T13:12:29.988Z,24.20
2022-08-29T13:14:57.615Z,24.20
2022-08-29T13:17:30.713Z,24.10
2022-08-29T13:20:46.279Z,23.80
2022-08-29T13:23:24.686Z,23.40
2022-08-29T13:25:53.980Z,23.00
2022-08-29T13:28:26.402Z,22.80
2022-08-29T13:31:11.912Z,22.60
2022-08-29T13:34:00.138Z,22.60
2022-08-29T13:36:27.606Z,22.50
2022-08-29T13:39:17.568Z,22.30
2022-08-29T13:41:48.984Z,22.20
2022-08-29T13:44:18.862Z,22.10
2022-08-29T13:46:47.697Z,22.00
2022-08-29T13:49:24.879Z,22.00
2022-08-29T13:51:52.665Z,22.00
2022-08-29T13:54:20.731Z,22.20
2022-08-29T13:56:56.690Z,22.20
2022-08-29T13:59:27.637Z,22.20
2022-08-29T14:02:11.247Z,22.20
2022-08-29T14:04:41.124Z,22.10
2022-08-29T14:07:11.960Z,22.10
2022-08-29T14:09:42.970Z,22.10
2022-08-29T14:12:10.520Z,22.10
2022-08-29T14:14:37.991Z,22.10
2022-08-29T14:17:05.916Z,22.10
2022-08-29T14:19:36.624Z,22.20
2022-08-29T14:22:04.754Z,22.30
2022-08-29T14:24:33.977Z,22.40
2022-08-29T14:27:02.846Z,22.40
2022-08-29T14:29:31.749Z,22.60
2022-08-29T14:32:02.962Z,22.50
2022-08-29T14:34:33.419Z,22.40
2022-08-29T14:37:02.058Z,22.30
2022-08-29T14:39:30.486Z,22.60
2022-08-29T14:41:58.024Z,24.00
2022-08-29T14:44:26.140Z,25.80
2022-08-29T14:46:53.381Z,27.10
2022-08-29T14:49:21.188Z,27.50
2022-08-29T14:51:48.996Z,26.80
2022-08-29T14:54:18.142Z,26.00
2022-08-29T14:56:49.245Z,25.30
2022-08-29T14:59:22.588Z,24.70
2022-08-29T15:01:54.278Z,24.30
2022-08-29T15:04:36.381Z,24.20
2022-08-29T15:07:09.329Z,24.40
2022-08-29T15:09:40.500Z,24.30
2022-08-29T15:12:13.433Z,24.20
2022-08-29T15:14:41.716Z,24.00
2022-08-29T15:17:09.096Z,23.60
2022-08-29T15:20:18.275Z,23.40
2022-08-29T15:22:26.794Z,23.20
2022-08-29T15:24:55.475Z,23.10
2022-08-29T15:27:27.380Z,22.90
2022-08-29T15:29:57.838Z,22.90
2022-08-29T15:32:25.962Z,23.00
2022-08-29T15:35:00.862Z,23.00
2022-08-29T15:37:29.662Z,22.00
2022-08-29T15:39:58.056Z,22.80
2022-08-29T15:42:31.101Z,22.60
2022-08-29T15:45:05.837Z,22.50
2022-08-29T15:47:37.342Z,22.30
2022-08-29T15:50:08.431Z,22.20
2022-08-29T15:52:37.534Z,22.20
2022-08-29T15:55:06.666Z,22.20
2022-08-29T15:57:40.267Z,22.20
2022-08-29T16:00:30.381Z,22.20
2022-08-29T16:03:04.650Z,22.10
2022-08-29T16:05:33.507Z,22.10
2022-08-29T16:08:02.531Z,22.00
2022-08-29T16:10:31.890Z,22.10
2022-08-29T16:12:59.903Z,22.10
2022-08-29T16:15:31.372Z,22.10
2022-08-29T16:18:03.923Z,22.20
2022-08-29T16:20:32.287Z,22.20
2022-08-29T16:23:01.807Z,22.10
2022-08-29T16:25:31.697Z,22.00
2022-08-29T16:27:59.930Z,21.80
2022-08-29T16:30:29.724Z,21.70
2022-08-29T16:32:58.214Z,21.50
2022-08-29T16:35:26.279Z,21.40
2022-08-29T16:38:02.702Z,21.30
2022-08-29T16:40:35.011Z,21.20
2022-08-29T16:43:04.445Z,21.10
2022-08-29T16:45:32.917Z,21.00
2022-08-29T16:48:00.915Z,21.00
2022-08-29T16:50:30.211Z,20.90
2022-08-29T16:52:57.950Z,20.90
2022-08-29T16:55:25.976Z,20.80
2022-08-29T16:58:12.398Z,20.80
2022-08-29T17:00:41.318Z,20.60
2022-08-29T17:03:09.553Z,20.50
2022-08-29T17:05:37.914Z,20.40
2022-08-29T17:08:05.661Z,20.30
2022-08-29T17:10:33.373Z,20.30
2022-08-29T17:13:00.993Z,20.10
2022-08-29T17:15:28.322Z,20.10
2022-08-29T17:17:56.408Z,20.00
2022-08-29T17:20:24.792Z,19.90
2022-08-29T17:22:52.748Z,19.90
2022-08-29T17:25:21.599Z,19.80
2022-08-29T17:28:14.298Z,19.70
2022-08-29T17:30:40.649Z,19.50
2022-08-29T17:33:10.897Z,19.30
2022-08-29T17:35:38.966Z,19.20
2022-08-29T17:38:06.783Z,19.10
2022-08-29T17:40:36.864Z,19.00
2022-08-29T17:43:04.552Z,18.80
2022-08-29T17:45:32.470Z,18.70
2022-08-29T17:47:59.713Z,18.60
2022-08-29T17:50:27.478Z,18.60
2022-08-29T17:52:55.454Z,18.50
2022-08-29T17:55:22.970Z,18.40
2022-08-29T17:57:54.990Z,18.40
2022-08-29T18:00:25.064Z,18.40
2022-08-29T18:02:52.969Z,18.30
2022-08-29T18:05:20.479Z,18.20
2022-08-29T18:07:48.008Z,18.20
2022-08-29T18:10:16.437Z,18.10
2022-08-29T18:12:43.422Z,18.00
2022-08-29T18:15:12.366Z,18.00
2022-08-29T18:17:40.722Z,17.90
2022-08-29T18:20:11.030Z,17.90
2022-08-29T18:22:39.792Z,17.80
2022-08-29T18:25:07.353Z,17.80
2022-08-29T18:27:34.413Z,17.80
2022-08-29T18:30:04.485Z,17.70
2022-08-29T18:32:34.753Z,17.60
2022-08-29T18:35:05.222Z,17.60
2022-08-29T18:37:32.188Z,17.50
2022-08-29T18:39:59.190Z,17.50
2022-08-29T18:42:40.049Z,17.50
2022-08-29T18:45:09.277Z,17.50
2022-08-29T18:47:37.309Z,17.40
2022-08-29T18:50:25.171Z,17.40
2022-08-29T18:52:53.163Z,17.40
2022-08-29T18:55:22.787Z,17.40
2022-08-29T18:57:50.723Z,17.40
2022-08-29T19:00:18.981Z,17.40
2022-08-29T19:02:46.430Z,17.30
2022-08-29T19:05:13.649Z,17.30
2022-08-29T19:07:41.083Z,17.20
2022-08-29T19:10:08.593Z,17.20
2022-08-29T19:12:35.584Z,17.10
2022-08-29T19:15:05.628Z,17.10
2022-08-29T19:17:32.609Z,17.10
2022-08-29T19:20:18.448Z,17.00
2022-08-29T19:22:46.823Z,17.00
2022-08-29T19:25:13.809Z,17.00
2022-08-29T19:27:44.079Z,17.00
2022-08-29T19:30:13.880Z,16.90
2022-08-29T19:32:41.074Z,16.90
2022-08-29T19:35:11.081Z,16.90
2022-08-29T19:37:40.128Z,16.80
2022-08-29T19:40:09.054Z,16.80
2022-08-29T19:42:37.492Z,16.80
2022-08-29T19:45:08.966Z,16.70
2022-08-29T19:47:36.262Z,16.80
2022-08-29T19:50:06.333Z,16.80
2022-08-29T19:52:33.945Z,16.80
2022-08-29T19:55:03.785Z,16.90
2022-08-29T19:57:31.080Z,16.90
2022-08-29T19:59:58.546Z,16.90
2022-08-29T20:02:26.206Z,17.00
2022-08-29T20:04:53.595Z,17.00
2022-08-29T20:07:21.053Z,17.00
2022-08-29T20:09:48.177Z,17.00
2022-08-29T20:12:15.191Z,16.90
2022-08-29T20:14:42.736Z,16.90
2022-08-29T20:17:11.001Z,16.80
2022-08-29T20:19:39.913Z,16.80
2022-08-29T20:22:07.341Z,18.40
2022-08-29T20:24:34.770Z,16.80
2022-08-29T20:27:02.649Z,16.90
2022-08-29T20:29:30.452Z,16.90
2022-08-29T20:31:58.990Z,16.90
2022-08-29T20:34:29.844Z,16.80
2022-08-29T20:37:09.382Z,16.80
2022-08-29T20:39:46.486Z,16.70
2022-08-29T20:42:16.110Z,16.60
2022-08-29T20:44:45.318Z,16.60
2022-08-29T20:47:18.789Z,16.50
2022-08-29T20:49:47.610Z,16.50
2022-08-29T20:52:18.499Z,16.40
2022-08-29T20:54:46.385Z,16.40
2022-08-29T20:57:14.984Z,16.30
2022-08-29T20:59:42.870Z,16.30
2022-08-29T21:02:10.947Z,16.20
2022-08-29T21:04:56.791Z,16.10
2022-08-29T21:07:23.745Z,16.00
2022-08-29T21:09:51.923Z,16.00
2022-08-29T21:12:20.596Z,16.00
2022-08-29T21:14:47.939Z,15.90
2022-08-29T21:17:16.246Z,15.90
2022-08-29T21:19:43.829Z,16.00
2022-08-29T21:22:13.402Z,16.10
2022-08-29T21:24:41.245Z,16.10
2022-08-29T21:27:08.528Z,16.20
2022-08-29T21:29:36.352Z,16.30
2022-08-29T21:32:03.929Z,16.30
2022-08-29T21:34:31.273Z,16.30
2022-08-29T21:36:58.210Z,16.30
2022-08-29T21:39:28.563Z,16.20
2022-08-29T21:41:57.073Z,16.20
2022-08-29T21:44:24.246Z,16.20
2022-08-29T21:46:51.822Z,16.20
2022-08-29T21:49:21.755Z,16.20
2022-08-29T21:51:49.271Z,16.10
2022-08-29T21:54:17.763Z,16.00
2022-08-29T21:56:45.796Z,15.90
2022-08-29T21:59:15.163Z,15.80
2022-08-29T22:01:45.609Z,15.80
2022-08-29T22:04:19.248Z,15.80
2022-08-29T22:06:55.954Z,15.70
2022-08-29T22:09:23.196Z,15.60
2022-08-29T22:11:50.411Z,15.60
2022-08-29T22:14:17.955Z,15.60
2022-08-29T22:16:44.866Z,15.60
2022-08-29T22:19:14.859Z,15.70
2022-08-29T22:21:49.816Z,15.80
2022-08-29T22:24:18.021Z,15.80
2022-08-29T22:26:46.550Z,15.80
2022-08-29T22:29:14.308Z,15.80
2022-08-29T22:31:42.781Z,15.70
2022-08-29T22:34:12.222Z,15.70
2022-08-29T22:36:39.195Z,15.70
2022-08-29T22:39:06.578Z,15.60
2022-08-29T22:41:34.235Z,15.60
2022-08-29T22:44:52.730Z,15.60
2022-08-29T22:46:49.253Z,15.60
2022-08-29T22:49:16.321Z,15.50
2022-08-29T22:51:43.265Z,15.50
2022-08-29T22:54:29.219Z,15.50
2022-08-29T22:56:56.118Z,15.50
2022-08-29T22:59:23.314Z,15.40
2022-08-29T23:01:50.647Z,15.40
2022-08-29T23:04:17.718Z,15.40
2022-08-29T23:06:45.505Z,15.40
2022-08-29T23:09:13.020Z,15.40
2022-08-29T23:11:40.714Z,15.40
2022-08-29T23:14:09.263Z,15.40
2022-08-29T23:16:40.231Z,15.30
2022-08-29T23:19:07.377Z,15.30
2022-08-29T23:21:35.545Z,15.30
2022-08-29T23:24:07.337Z,15.20
2022-08-29T23:26:34.707Z,15.20
2022-08-29T23:29:02.142Z,15.20
2022-08-29T23:31:29.149Z,15.10
2022-08-29T23:33:56.275Z,15.10
2022-08-29T23:36:23.500Z,15.00
2022-08-29T23:38:52.781Z,15.00
2022-08-29T23:41:20.037Z,15.10
2022-08-29T23:43:47.218Z,15.20
2022-08-29T23:46:14.695Z,15.20
2022-08-29T23:48:41.686Z,15.20
2022-08-29T23:51:10.695Z,15.20
2022-08-29T23:53:37.939Z,15.20
2022-08-29T23:56:12.755Z,15.20
2022-08-29T23:58:40.550Z,15.30
